sensor_id;sensor_type;location;lat;lon;timestamp;pressure;altitude;pressure_sealevel;temperature;humidity
34065;BME280;20339;49.754;20.158;2023-11-21T00:00:22;95804.98;;;6.49;100.00
34065;BME280;20339;49.754;20.158;2023-11-21T00:03:14;95803.80;;;6.43;100.00
34065;BME280;20339;49.754;20.158;2023-11-21T00:05:45;95809.88;;;6.39;100.00
34065;BME280;20339;49.754;20.158;2023-11-21T00:08:18;95810.90;;;6.36;100.00
34065;BME280;20339;49.754;20.158;2023-11-21T00:10:49;95810.64;;;6.33;100.00
34065;BME280;20339;49.754;20.158;2023-11-21T00:13:20;95811.33;;;6.30;100.00
34065;BME280;20339;49.754;20.158;2023-11-21T00:15:54;95808.77;;;6.27;100.00
34065;BME280;20339;49.754;20.158;2023-11-21T00:18:25;95812.99;;;6.25;100.00
34065;BME280;20339;49.754;20.158;2023-11-21T00:20:58;95811.52;;;6.24;100.00
34065;BME280;20339;49.754;20.158;2023-11-21T00:23:31;95817.35;;;6.26;100.00
34065;BME280;20339;49.754;20.158;2023-11-21T00:26:05;95819.66;;;6.27;100.00
34065;BME280;20339;49.754;20.158;2023-11-21T00:28:36;95818.56;;;6.28;100.00
34065;BME280;20339;49.754;20.158;2023-11-21T00:31:07;95816.13;;;6.29;100.00
34065;BME280;20339;49.754;20.158;2023-11-21T00:33:39;95818.86;;;6.30;100.00
34065;BME280;20339;49.754;20.158;2023-11-21T00:36:12;95813.86;;;6.30;100.00
34065;BME280;20339;49.754;20.158;2023-11-21T00:38:43;95813.27;;;6.31;100.00
34065;BME280;20339;49.754;20.158;2023-11-21T00:41:22;95812.33;;;6.32;100.00
34065;BME280;20339;49.754;20.158;2023-11-21T00:43:57;95814.48;;;6.32;100.00
34065;BME280;20339;49.754;20.158;2023-11-21T00:46:31;95816.32;;;6.33;100.00
34065;BME280;20339;49.754;20.158;2023-11-21T00:49:02;95821.52;;;6.36;100.00
34065;BME280;20339;49.754;20.158;2023-11-21T00:51:33;95818.83;;;6.41;100.00
34065;BME280;20339;49.754;20.158;2023-11-21T00:54:08;95817.99;;;6.45;100.00
34065;BME280;20339;49.754;20.158;2023-11-21T00:56:41;95819.31;;;6.49;100.00
34065;BME280;20339;49.754;20.158;2023-11-21T00:59:20;95819.83;;;6.51;100.00
34065;BME280;20339;49.754;20.158;2023-11-21T01:01:53;95820.93;;;6.51;100.00
34065;BME280;20339;49.754;20.158;2023-11-21T01:04:26;95821.46;;;6.50;100.00
34065;BME280;20339;49.754;20.158;2023-11-21T01:07:02;95828.27;;;6.50;100.00
34065;BME280;20339;49.754;20.158;2023-11-21T01:09:37;95833.89;;;6.51;100.00
34065;BME280;20339;49.754;20.158;2023-11-21T01:12:11;95832.20;;;6.52;100.00
34065;BME280;20339;49.754;20.158;2023-11-21T01:14:44;95829.77;;;6.53;100.00
34065;BME280;20339;49.754;20.158;2023-11-21T01:17:16;95829.34;;;6.53;100.00
34065;BME280;20339;49.754;20.158;2023-11-21T01:19:50;95827.17;;;6.55;100.00
34065;BME280;20339;49.754;20.158;2023-11-21T01:22:21;95825.05;;;6.57;100.00
34065;BME280;20339;49.754;20.158;2023-11-21T01:24:55;95826.35;;;6.60;100.00
34065;BME280;20339;49.754;20.158;2023-11-21T01:27:29;95822.09;;;6.63;100.00
34065;BME280;20339;49.754;20.158;2023-11-21T01:30:07;95824.77;;;6.64;100.00
34065;BME280;20339;49.754;20.158;2023-11-21T01:32:40;95827.39;;;6.66;100.00
34065;BME280;20339;49.754;20.158;2023-11-21T01:35:12;95830.00;;;6.68;100.00
34065;BME280;20339;49.754;20.158;2023-11-21T01:37:45;95832.44;;;6.68;100.00
34065;BME280;20339;49.754;20.158;2023-11-21T01:40:17;95832.49;;;6.66;100.00
34065;BME280;20339;49.754;20.158;2023-11-21T01:42:52;95825.66;;;6.64;100.00
34065;BME280;20339;49.754;20.158;2023-11-21T01:45:24;95829.83;;;6.64;100.00
34065;BME280;20339;49.754;20.158;2023-11-21T01:47:55;95828.14;;;6.65;100.00
34065;BME280;20339;49.754;20.158;2023-11-21T01:50:32;95830.45;;;6.63;100.00
34065;BME280;20339;49.754;20.158;2023-11-21T01:53:04;95835.61;;;6.64;100.00
34065;BME280;20339;49.754;20.158;2023-11-21T01:55:39;95830.61;;;6.63;100.00
34065;BME280;20339;49.754;20.158;2023-11-21T01:58:11;95831.89;;;6.63;100.00
34065;BME280;20339;49.754;20.158;2023-11-21T02:00:46;95830.63;;;6.63;100.00
34065;BME280;20339;49.754;20.158;2023-11-21T02:03:23;95829.77;;;6.61;100.00
34065;BME280;20339;49.754;20.158;2023-11-21T02:05:59;95830.14;;;6.59;100.00
34065;BME280;20339;49.754;20.158;2023-11-21T02:08:33;95830.73;;;6.59;100.00
34065;BME280;20339;49.754;20.158;2023-11-21T02:11:09;95832.83;;;6.60;100.00
34065;BME280;20339;49.754;20.158;2023-11-21T02:13:44;95842.80;;;6.57;100.00
34065;BME280;20339;49.754;20.158;2023-11-21T02:16:16;95840.92;;;6.53;100.00
34065;BME280;20339;49.754;20.158;2023-11-21T02:18:52;95846.30;;;6.53;100.00
34065;BME280;20339;49.754;20.158;2023-11-21T02:21:26;95852.21;;;6.51;100.00
34065;BME280;20339;49.754;20.158;2023-11-21T02:23:59;95858.18;;;6.48;100.00
34065;BME280;20339;49.754;20.158;2023-11-21T02:26:40;95863.45;;;6.48;100.00
34065;BME280;20339;49.754;20.158;2023-11-21T02:29:11;95868.75;;;6.47;100.00
34065;BME280;20339;49.754;20.158;2023-11-21T02:31:42;95864.70;;;6.46;100.00
34065;BME280;20339;49.754;20.158;2023-11-21T02:34:17;95862.18;;;6.45;100.00
34065;BME280;20339;49.754;20.158;2023-11-21T02:36:51;95860.92;;;6.44;100.00
34065;BME280;20339;49.754;20.158;2023-11-21T02:39:23;95858.09;;;6.42;100.00
34065;BME280;20339;49.754;20.158;2023-11-21T02:41:57;95862.38;;;6.39;100.00
34065;BME280;20339;49.754;20.158;2023-11-21T02:44:28;95861.40;;;6.35;100.00
34065;BME280;20339;49.754;20.158;2023-11-21T02:47:00;95859.96;;;6.33;100.00
34065;BME280;20339;49.754;20.158;2023-11-21T02:49:33;95859.23;;;6.34;100.00
34065;BME280;20339;49.754;20.158;2023-11-21T02:52:05;95853.27;;;6.33;100.00
34065;BME280;20339;49.754;20.158;2023-11-21T02:54:39;95852.70;;;6.34;100.00
34065;BME280;20339;49.754;20.158;2023-11-21T02:57:12;95851.55;;;6.30;100.00
34065;BME280;20339;49.754;20.158;2023-11-21T02:59:44;95850.73;;;6.27;100.00
34065;BME280;20339;49.754;20.158;2023-11-21T03:02:22;95848.45;;;6.28;100.00
34065;BME280;20339;49.754;20.158;2023-11-21T03:04:56;95851.70;;;6.32;100.00
34065;BME280;20339;49.754;20.158;2023-11-21T03:07:26;95853.59;;;6.32;100.00
34065;BME280;20339;49.754;20.158;2023-11-21T03:09:58;95857.86;;;6.34;100.00
34065;BME280;20339;49.754;20.158;2023-11-21T03:12:29;95861.13;;;6.37;100.00
34065;BME280;20339;49.754;20.158;2023-11-21T03:15:01;95857.90;;;6.38;100.00
34065;BME280;20339;49.754;20.158;2023-11-21T03:17:32;95855.36;;;6.41;100.00
34065;BME280;20339;49.754;20.158;2023-11-21T03:20:07;95859.20;;;6.42;100.00
34065;BME280;20339;49.754;20.158;2023-11-21T03:22:41;95865.94;;;6.42;100.00
34065;BME280;20339;49.754;20.158;2023-11-21T03:25:13;95867.92;;;6.43;100.00
34065;BME280;20339;49.754;20.158;2023-11-21T03:27:49;95865.35;;;6.42;100.00
34065;BME280;20339;49.754;20.158;2023-11-21T03:30:20;95871.83;;;6.42;100.00
34065;BME280;20339;49.754;20.158;2023-11-21T03:32:51;95869.09;;;6.42;100.00
34065;BME280;20339;49.754;20.158;2023-11-21T03:35:22;95866.72;;;6.43;100.00
34065;BME280;20339;49.754;20.158;2023-11-21T03:37:54;95865.09;;;6.42;100.00
34065;BME280;20339;49.754;20.158;2023-11-21T03:40:27;95871.41;;;6.42;100.00
34065;BME280;20339;49.754;20.158;2023-11-21T03:42:58;95873.99;;;6.41;100.00
34065;BME280;20339;49.754;20.158;2023-11-21T03:45:29;95877.80;;;6.40;100.00
34065;BME280;20339;49.754;20.158;2023-11-21T03:48:00;95881.59;;;6.39;100.00
34065;BME280;20339;49.754;20.158;2023-11-21T03:50:32;95875.64;;;6.39;100.00
34065;BME280;20339;49.754;20.158;2023-11-21T03:53:03;95880.86;;;6.38;100.00
34065;BME280;20339;49.754;20.158;2023-11-21T03:55:40;95873.49;;;6.37;100.00
34065;BME280;20339;49.754;20.158;2023-11-21T03:58:10;95876.00;;;6.40;100.00
34065;BME280;20339;49.754;20.158;2023-11-21T04:00:47;95874.95;;;6.41;100.00
34065;BME280;20339;49.754;20.158;2023-11-21T04:03:20;95876.52;;;6.43;100.00
34065;BME280;20339;49.754;20.158;2023-11-21T04:05:59;95878.56;;;6.44;100.00
34065;BME280;20339;49.754;20.158;2023-11-21T04:08:37;95878.70;;;6.44;100.00
34065;BME280;20339;49.754;20.158;2023-11-21T04:11:11;95876.61;;;6.44;100.00
34065;BME280;20339;49.754;20.158;2023-11-21T04:13:45;95879.02;;;6.45;100.00
34065;BME280;20339;49.754;20.158;2023-11-21T04:16:17;95881.92;;;6.45;100.00
34065;BME280;20339;49.754;20.158;2023-11-21T04:18:51;95880.55;;;6.46;100.00
34065;BME280;20339;49.754;20.158;2023-11-21T04:21:28;95881.23;;;6.46;100.00
34065;BME280;20339;49.754;20.158;2023-11-21T04:24:02;95880.66;;;6.45;100.00
34065;BME280;20339;49.754;20.158;2023-11-21T04:26:34;95878.70;;;6.46;100.00
34065;BME280;20339;49.754;20.158;2023-11-21T04:29:10;95879.98;;;6.47;100.00
34065;BME280;20339;49.754;20.158;2023-11-21T04:31:42;95879.23;;;6.46;100.00
34065;BME280;20339;49.754;20.158;2023-11-21T04:34:16;95879.49;;;6.47;100.00
34065;BME280;20339;49.754;20.158;2023-11-21T04:36:49;95881.65;;;6.47;100.00
34065;BME280;20339;49.754;20.158;2023-11-21T04:39:20;95881.02;;;6.46;100.00
34065;BME280;20339;49.754;20.158;2023-11-21T04:41:54;95882.14;;;6.44;100.00
34065;BME280;20339;49.754;20.158;2023-11-21T04:44:25;95879.66;;;6.44;100.00
34065;BME280;20339;49.754;20.158;2023-11-21T04:46:55;95882.66;;;6.45;100.00
34065;BME280;20339;49.754;20.158;2023-11-21T04:49:27;95885.02;;;6.46;100.00
34065;BME280;20339;49.754;20.158;2023-11-21T04:51:58;95887.23;;;6.48;100.00
34065;BME280;20339;49.754;20.158;2023-11-21T04:54:32;95883.65;;;6.47;100.00
34065;BME280;20339;49.754;20.158;2023-11-21T04:57:03;95887.92;;;6.46;100.00
34065;BME280;20339;49.754;20.158;2023-11-21T04:59:36;95886.94;;;6.44;100.00
34065;BME280;20339;49.754;20.158;2023-11-21T05:02:08;95888.21;;;6.41;100.00
34065;BME280;20339;49.754;20.158;2023-11-21T05:04:42;95883.90;;;6.40;100.00
34065;BME280;20339;49.754;20.158;2023-11-21T05:07:13;95886.33;;;6.39;100.00
34065;BME280;20339;49.754;20.158;2023-11-21T05:09:45;95885.02;;;6.38;100.00
34065;BME280;20339;49.754;20.158;2023-11-21T05:12:23;95884.45;;;6.37;100.00
34065;BME280;20339;49.754;20.158;2023-11-21T05:14:59;95888.77;;;6.37;100.00
34065;BME280;20339;49.754;20.158;2023-11-21T05:17:32;95894.23;;;6.39;100.00
34065;BME280;20339;49.754;20.158;2023-11-21T05:20:08;95897.00;;;6.41;100.00
34065;BME280;20339;49.754;20.158;2023-11-21T05:22:42;95897.90;;;6.41;100.00
34065;BME280;20339;49.754;20.158;2023-11-21T05:25:16;95896.01;;;6.41;100.00
34065;BME280;20339;49.754;20.158;2023-11-21T05:27:50;95899.55;;;6.40;100.00
34065;BME280;20339;49.754;20.158;2023-11-21T05:30:25;95900.25;;;6.37;100.00
34065;BME280;20339;49.754;20.158;2023-11-21T05:32:58;95900.79;;;6.34;100.00
34065;BME280;20339;49.754;20.158;2023-11-21T05:35:32;95902.61;;;6.32;100.00
34065;BME280;20339;49.754;20.158;2023-11-21T05:38:05;95906.55;;;6.31;100.00
34065;BME280;20339;49.754;20.158;2023-11-21T05:40:43;95910.31;;;6.29;100.00
34065;BME280;20339;49.754;20.158;2023-11-21T05:43:14;95910.95;;;6.26;100.00
34065;BME280;20339;49.754;20.158;2023-11-21T05:45:46;95911.80;;;6.24;100.00
34065;BME280;20339;49.754;20.158;2023-11-21T05:48:20;95914.33;;;6.24;100.00
34065;BME280;20339;49.754;20.158;2023-11-21T05:50:54;95914.11;;;6.25;100.00
34065;BME280;20339;49.754;20.158;2023-11-21T05:53:30;95914.65;;;6.23;100.00
34065;BME280;20339;49.754;20.158;2023-11-21T05:56:01;95920.23;;;6.22;100.00
34065;BME280;20339;49.754;20.158;2023-11-21T05:58:33;95920.39;;;6.22;100.00
34065;BME280;20339;49.754;20.158;2023-11-21T06:01:07;95926.23;;;6.20;100.00
34065;BME280;20339;49.754;20.158;2023-11-21T06:03:41;95922.55;;;6.16;100.00
34065;BME280;20339;49.754;20.158;2023-11-21T06:06:13;95924.35;;;6.14;100.00
34065;BME280;20339;49.754;20.158;2023-11-21T06:08:46;95924.45;;;6.14;100.00
34065;BME280;20339;49.754;20.158;2023-11-21T06:11:18;95926.30;;;6.13;100.00
34065;BME280;20339;49.754;20.158;2023-11-21T06:13:50;95923.77;;;6.12;100.00
34065;BME280;20339;49.754;20.158;2023-11-21T06:16:23;95928.05;;;6.09;100.00
34065;BME280;20339;49.754;20.158;2023-11-21T06:18:54;95924.70;;;6.08;100.00
34065;BME280;20339;49.754;20.158;2023-11-21T06:21:25;95931.20;;;6.07;100.00
34065;BME280;20339;49.754;20.158;2023-11-21T06:23:58;95934.95;;;6.07;100.00
34065;BME280;20339;49.754;20.158;2023-11-21T06:26:32;95933.80;;;6.07;100.00
34065;BME280;20339;49.754;20.158;2023-11-21T06:29:07;95935.37;;;6.06;100.00
34065;BME280;20339;49.754;20.158;2023-11-21T06:31:38;95936.63;;;6.06;100.00
34065;BME280;20339;49.754;20.158;2023-11-21T06:34:10;95940.27;;;6.06;100.00
34065;BME280;20339;49.754;20.158;2023-11-21T06:36:44;95939.36;;;6.07;100.00
34065;BME280;20339;49.754;20.158;2023-11-21T06:39:17;95937.58;;;6.07;100.00
34065;BME280;20339;49.754;20.158;2023-11-21T06:41:54;95944.48;;;6.08;100.00
34065;BME280;20339;49.754;20.158;2023-11-21T06:44:28;95947.20;;;6.11;100.00
34065;BME280;20339;49.754;20.158;2023-11-21T06:46:59;95941.51;;;6.14;100.00
34065;BME280;20339;49.754;20.158;2023-11-21T06:49:30;95946.55;;;6.16;100.00
34065;BME280;20339;49.754;20.158;2023-11-21T06:52:07;95948.86;;;6.19;100.00
34065;BME280;20339;49.754;20.158;2023-11-21T06:54:42;95951.40;;;6.22;100.00
34065;BME280;20339;49.754;20.158;2023-11-21T06:57:17;95953.13;;;6.25;100.00
34065;BME280;20339;49.754;20.158;2023-11-21T06:59:48;95956.11;;;6.28;100.00
34065;BME280;20339;49.754;20.158;2023-11-21T07:02:20;95954.90;;;6.28;100.00
34065;BME280;20339;49.754;20.158;2023-11-21T07:04:51;95961.70;;;6.27;100.00
34065;BME280;20339;49.754;20.158;2023-11-21T07:07:26;95963.23;;;6.28;100.00
34065;BME280;20339;49.754;20.158;2023-11-21T07:10:00;95960.41;;;6.32;100.00
34065;BME280;20339;49.754;20.158;2023-11-21T07:12:33;95966.30;;;6.33;100.00
34065;BME280;20339;49.754;20.158;2023-11-21T07:15:09;95967.36;;;6.32;100.00
34065;BME280;20339;49.754;20.158;2023-11-21T07:17:43;95973.64;;;6.34;100.00
34065;BME280;20339;49.754;20.158;2023-11-21T07:20:19;95977.39;;;6.34;100.00
34065;BME280;20339;49.754;20.158;2023-11-21T07:22:51;95979.59;;;6.35;100.00
34065;BME280;20339;49.754;20.158;2023-11-21T07:25:24;95980.76;;;6.34;100.00
34065;BME280;20339;49.754;20.158;2023-11-21T07:27:55;95989.17;;;6.34;100.00
34065;BME280;20339;49.754;20.158;2023-11-21T07:30:29;95993.91;;;6.35;100.00
34065;BME280;20339;49.754;20.158;2023-11-21T07:33:05;95990.80;;;6.37;100.00
34065;BME280;20339;49.754;20.158;2023-11-21T07:35:37;95991.06;;;6.36;100.00
34065;BME280;20339;49.754;20.158;2023-11-21T07:38:08;95992.11;;;6.37;100.00
34065;BME280;20339;49.754;20.158;2023-11-21T07:40:44;95992.63;;;6.42;100.00
34065;BME280;20339;49.754;20.158;2023-11-21T07:43:15;95991.20;;;6.50;100.00
34065;BME280;20339;49.754;20.158;2023-11-21T07:45:51;95995.17;;;6.57;100.00
34065;BME280;20339;49.754;20.158;2023-11-21T07:48:24;95991.91;;;6.63;100.00
34065;BME280;20339;49.754;20.158;2023-11-21T07:50:58;95993.52;;;6.66;100.00
34065;BME280;20339;49.754;20.158;2023-11-21T07:53:29;95997.08;;;6.71;100.00
34065;BME280;20339;49.754;20.158;2023-11-21T07:56:04;95997.49;;;6.73;100.00
34065;BME280;20339;49.754;20.158;2023-11-21T07:58:39;95997.40;;;6.72;100.00
34065;BME280;20339;49.754;20.158;2023-11-21T08:01:12;96002.04;;;6.70;100.00
34065;BME280;20339;49.754;20.158;2023-11-21T08:03:43;96005.63;;;6.70;100.00
34065;BME280;20339;49.754;20.158;2023-11-21T08:06:21;96001.55;;;6.71;100.00
34065;BME280;20339;49.754;20.158;2023-11-21T08:08:55;96001.50;;;6.71;100.00
34065;BME280;20339;49.754;20.158;2023-11-21T08:11:31;96000.09;;;6.70;100.00
34065;BME280;20339;49.754;20.158;2023-11-21T08:14:05;95998.20;;;6.67;100.00
34065;BME280;20339;49.754;20.158;2023-11-21T08:16:41;96000.23;;;6.64;100.00
34065;BME280;20339;49.754;20.158;2023-11-21T08:19:13;95998.70;;;6.62;100.00
34065;BME280;20339;49.754;20.158;2023-11-21T08:21:53;96000.34;;;6.62;100.00
34065;BME280;20339;49.754;20.158;2023-11-21T08:24:31;95996.91;;;6.63;100.00
34065;BME280;20339;49.754;20.158;2023-11-21T08:27:02;95999.16;;;6.67;100.00
34065;BME280;20339;49.754;20.158;2023-11-21T08:29:34;96002.20;;;6.69;100.00
34065;BME280;20339;49.754;20.158;2023-11-21T08:32:07;96002.52;;;6.70;100.00
34065;BME280;20339;49.754;20.158;2023-11-21T08:34:43;96012.40;;;6.73;100.00
34065;BME280;20339;49.754;20.158;2023-11-21T08:37:19;96014.71;;;6.73;100.00
34065;BME280;20339;49.754;20.158;2023-11-21T08:39:53;96020.47;;;6.72;100.00
34065;BME280;20339;49.754;20.158;2023-11-21T08:42:24;96022.10;;;6.72;100.00
34065;BME280;20339;49.754;20.158;2023-11-21T08:44:59;96018.88;;;6.74;100.00
34065;BME280;20339;49.754;20.158;2023-11-21T08:47:33;96024.35;;;6.74;100.00
34065;BME280;20339;49.754;20.158;2023-11-21T08:50:12;96020.88;;;6.74;100.00
34065;BME280;20339;49.754;20.158;2023-11-21T08:52:49;96026.84;;;6.76;100.00
34065;BME280;20339;49.754;20.158;2023-11-21T08:55:23;96035.00;;;6.75;100.00
34065;BME280;20339;49.754;20.158;2023-11-21T08:57:56;96036.64;;;6.75;100.00
34065;BME280;20339;49.754;20.158;2023-11-21T09:00:31;96038.91;;;6.76;100.00
34065;BME280;20339;49.754;20.158;2023-11-21T09:03:06;96033.31;;;6.75;100.00
34065;BME280;20339;49.754;20.158;2023-11-21T09:05:40;96033.73;;;6.72;100.00
34065;BME280;20339;49.754;20.158;2023-11-21T09:08:11;96029.60;;;6.69;100.00
34065;BME280;20339;49.754;20.158;2023-11-21T09:10:45;96028.14;;;6.66;100.00
34065;BME280;20339;49.754;20.158;2023-11-21T09:13:19;96029.03;;;6.64;100.00
34065;BME280;20339;49.754;20.158;2023-11-21T09:15:50;96032.52;;;6.63;100.00
34065;BME280;20339;49.754;20.158;2023-11-21T09:18:22;96031.08;;;6.61;100.00
34065;BME280;20339;49.754;20.158;2023-11-21T09:20:55;96030.77;;;6.61;100.00
34065;BME280;20339;49.754;20.158;2023-11-21T09:23:29;96029.50;;;6.59;100.00
34065;BME280;20339;49.754;20.158;2023-11-21T09:26:04;96024.29;;;6.58;100.00
34065;BME280;20339;49.754;20.158;2023-11-21T09:28:35;96024.20;;;6.56;100.00
34065;BME280;20339;49.754;20.158;2023-11-21T09:31:07;96030.59;;;6.51;100.00
34065;BME280;20339;49.754;20.158;2023-11-21T09:33:39;96031.33;;;6.51;100.00
34065;BME280;20339;49.754;20.158;2023-11-21T09:36:16;96031.48;;;6.52;100.00
34065;BME280;20339;49.754;20.158;2023-11-21T09:38:55;96035.62;;;6.57;100.00
34065;BME280;20339;49.754;20.158;2023-11-21T09:41:43;96034.14;;;6.57;100.00
34065;BME280;20339;49.754;20.158;2023-11-21T09:44:20;96030.55;;;6.61;100.00
34065;BME280;20339;49.754;20.158;2023-11-21T09:47:01;96034.93;;;6.66;100.00
34065;BME280;20339;49.754;20.158;2023-11-21T09:49:40;96032.75;;;6.70;100.00
34065;BME280;20339;49.754;20.158;2023-11-21T09:52:22;96035.02;;;6.70;100.00
34065;BME280;20339;49.754;20.158;2023-11-21T09:54:58;96037.38;;;6.75;100.00
34065;BME280;20339;49.754;20.158;2023-11-21T09:57:31;96034.04;;;6.82;100.00
34065;BME280;20339;49.754;20.158;2023-11-21T10:00:07;96037.40;;;6.86;100.00
34065;BME280;20339;49.754;20.158;2023-11-21T10:02:46;96034.02;;;6.85;100.00
34065;BME280;20339;49.754;20.158;2023-11-21T10:05:22;96038.08;;;6.86;100.00
34065;BME280;20339;49.754;20.158;2023-11-21T10:07:59;96039.65;;;6.88;100.00
34065;BME280;20339;49.754;20.158;2023-11-21T10:10:33;96033.40;;;6.84;100.00
34065;BME280;20339;49.754;20.158;2023-11-21T10:13:10;96035.69;;;6.78;100.00
34065;BME280;20339;49.754;20.158;2023-11-21T10:15:43;96034.11;;;6.74;100.00
34065;BME280;20339;49.754;20.158;2023-11-21T10:18:20;96036.80;;;6.73;100.00
34065;BME280;20339;49.754;20.158;2023-11-21T10:20:58;96042.38;;;6.73;100.00
34065;BME280;20339;49.754;20.158;2023-11-21T10:23:29;96041.90;;;6.75;100.00
34065;BME280;20339;49.754;20.158;2023-11-21T10:26:04;96048.29;;;6.76;100.00
34065;BME280;20339;49.754;20.158;2023-11-21T10:28:39;96036.38;;;6.73;100.00
34065;BME280;20339;49.754;20.158;2023-11-21T10:31:12;96040.23;;;6.73;100.00
34065;BME280;20339;49.754;20.158;2023-11-21T10:33:46;96037.68;;;6.73;100.00
34065;BME280;20339;49.754;20.158;2023-11-21T10:36:28;96039.48;;;6.76;100.00
34065;BME280;20339;49.754;20.158;2023-11-21T10:39:01;96033.37;;;6.79;100.00
34065;BME280;20339;49.754;20.158;2023-11-21T10:41:33;96037.64;;;6.79;100.00
34065;BME280;20339;49.754;20.158;2023-11-21T10:44:07;96041.42;;;6.81;100.00
34065;BME280;20339;49.754;20.158;2023-11-21T10:46:40;96043.88;;;6.84;100.00
34065;BME280;20339;49.754;20.158;2023-11-21T10:49:13;96043.71;;;6.89;100.00
34065;BME280;20339;49.754;20.158;2023-11-21T10:51:46;96042.23;;;6.93;100.00
34065;BME280;20339;49.754;20.158;2023-11-21T10:54:25;96041.05;;;6.98;100.00
34065;BME280;20339;49.754;20.158;2023-11-21T10:57:00;96039.69;;;7.10;100.00
34065;BME280;20339;49.754;20.158;2023-11-21T10:59:33;96039.29;;;7.19;100.00
34065;BME280;20339;49.754;20.158;2023-11-21T11:02:21;96039.75;;;7.23;100.00
34065;BME280;20339;49.754;20.158;2023-11-21T11:05:00;96038.75;;;7.22;100.00
34065;BME280;20339;49.754;20.158;2023-11-21T11:07:32;96040.34;;;7.21;100.00
34065;BME280;20339;49.754;20.158;2023-11-21T11:10:08;96036.88;;;7.28;100.00
34065;BME280;20339;49.754;20.158;2023-11-21T11:12:46;96037.42;;;7.25;100.00
34065;BME280;20339;49.754;20.158;2023-11-21T11:15:19;96036.61;;;7.19;100.00
34065;BME280;20339;49.754;20.158;2023-11-21T11:17:52;96034.38;;;7.17;100.00
34065;BME280;20339;49.754;20.158;2023-11-21T11:20:34;96036.33;;;7.17;100.00
34065;BME280;20339;49.754;20.158;2023-11-21T11:23:08;96038.91;;;7.17;100.00
34065;BME280;20339;49.754;20.158;2023-11-21T11:25:57;96036.34;;;7.17;100.00
34065;BME280;20339;49.754;20.158;2023-11-21T11:28:38;96035.13;;;7.19;100.00
34065;BME280;20339;49.754;20.158;2023-11-21T11:31:29;96033.63;;;7.24;100.00
34065;BME280;20339;49.754;20.158;2023-11-21T11:34:19;96036.12;;;7.31;100.00
34065;BME280;20339;49.754;20.158;2023-11-21T11:37:01;96035.61;;;7.39;100.00
34065;BME280;20339;49.754;20.158;2023-11-21T11:39:37;96040.74;;;7.45;100.00
34065;BME280;20339;49.754;20.158;2023-11-21T11:42:13;96042.85;;;7.48;100.00
34065;BME280;20339;49.754;20.158;2023-11-21T11:44:56;96042.58;;;7.51;100.00
34065;BME280;20339;49.754;20.158;2023-11-21T11:47:31;96044.60;;;7.54;100.00
34065;BME280;20339;49.754;20.158;2023-11-21T11:50:07;96045.05;;;7.51;100.00
34065;BME280;20339;49.754;20.158;2023-11-21T11:52:46;96042.11;;;7.46;100.00
34065;BME280;20339;49.754;20.158;2023-11-21T11:55:22;96041.97;;;7.42;100.00
34065;BME280;20339;49.754;20.158;2023-11-21T11:57:55;96042.91;;;7.43;100.00
34065;BME280;20339;49.754;20.158;2023-11-21T12:00:35;96039.80;;;7.44;100.00
34065;BME280;20339;49.754;20.158;2023-11-21T12:03:15;96044.54;;;7.45;99.78
34065;BME280;20339;49.754;20.158;2023-11-21T12:05:48;96044.80;;;7.44;99.27
34065;BME280;20339;49.754;20.158;2023-11-21T12:08:29;96049.51;;;7.43;98.49
34065;BME280;20339;49.754;20.158;2023-11-21T12:11:07;96049.98;;;7.43;98.33
34065;BME280;20339;49.754;20.158;2023-11-21T12:13:41;96045.27;;;7.45;98.39
34065;BME280;20339;49.754;20.158;2023-11-21T12:16:13;96048.23;;;7.47;98.78
34065;BME280;20339;49.754;20.158;2023-11-21T12:18:46;96046.45;;;7.48;98.51
34065;BME280;20339;49.754;20.158;2023-11-21T12:21:19;96043.96;;;7.46;98.27
34065;BME280;20339;49.754;20.158;2023-11-21T12:23:54;96042.23;;;7.46;98.43
34065;BME280;20339;49.754;20.158;2023-11-21T12:26:29;96042.80;;;7.45;98.40
34065;BME280;20339;49.754;20.158;2023-11-21T12:29:01;96042.94;;;7.51;98.56
34065;BME280;20339;49.754;20.158;2023-11-21T12:31:45;96046.02;;;7.55;98.26
34065;BME280;20339;49.754;20.158;2023-11-21T12:34:19;96044.89;;;7.57;98.41
34065;BME280;20339;49.754;20.158;2023-11-21T12:36:51;96045.89;;;7.59;98.17
34065;BME280;20339;49.754;20.158;2023-11-21T12:39:26;96045.59;;;7.56;97.79
34065;BME280;20339;49.754;20.158;2023-11-21T12:42:04;96042.88;;;7.41;96.82
34065;BME280;20339;49.754;20.158;2023-11-21T12:44:36;96045.73;;;7.30;96.97
34065;BME280;20339;49.754;20.158;2023-11-21T12:47:20;96046.52;;;7.22;96.93
34065;BME280;20339;49.754;20.158;2023-11-21T12:49:55;96051.85;;;7.12;97.12
34065;BME280;20339;49.754;20.158;2023-11-21T12:52:31;96054.42;;;7.06;97.27
34065;BME280;20339;49.754;20.158;2023-11-21T12:55:07;96052.05;;;7.03;97.72
34065;BME280;20339;49.754;20.158;2023-11-21T12:57:48;96054.06;;;7.04;98.09
34065;BME280;20339;49.754;20.158;2023-11-21T13:00:31;96050.98;;;7.05;98.33
34065;BME280;20339;49.754;20.158;2023-11-21T13:03:08;96051.30;;;7.08;98.56
34065;BME280;20339;49.754;20.158;2023-11-21T13:05:47;96054.15;;;7.07;98.41
34065;BME280;20339;49.754;20.158;2023-11-21T13:08:27;96056.41;;;7.07;98.58
34065;BME280;20339;49.754;20.158;2023-11-21T13:11:04;96060.88;;;7.12;98.92
34065;BME280;20339;49.754;20.158;2023-11-21T13:13:36;96059.64;;;7.20;99.08
34065;BME280;20339;49.754;20.158;2023-11-21T13:16:17;96061.73;;;7.24;98.91
34065;BME280;20339;49.754;20.158;2023-11-21T13:18:52;96066.39;;;7.19;98.61
34065;BME280;20339;49.754;20.158;2023-11-21T13:21:27;96066.87;;;7.15;98.43
34065;BME280;20339;49.754;20.158;2023-11-21T13:24:01;96068.20;;;7.13;98.29
34065;BME280;20339;49.754;20.158;2023-11-21T13:26:49;96069.24;;;7.14;98.35